Terminal Aerodrome Forecast
Issued by NWS Upton, NY

Home | Current Version | Previous Version | Text Only | Print | Product List | Glossary On
Versions: 1 2 3 4 5 6 7 8 9 10 11 12 13 14 15 16 17 18 19 20 21 22 23 24 25 26 27
808
FTUS41 KOKX 071431 AAA
TAFISP
TAF AMD
KISP 071431Z 0715/0812 VRB04KT P6SM SKC
     FM071900 08006KT P6SM BKN250
     FM072200 05007KT P6SM BKN200
     FM080300 03011KT P6SM BKN150
     FM080500 02014G20KT P6SM FEW015 OVC130
     FM080800 02018G25KT P6SM BKN015=

USA.gov is the U.S. government's official web portal to all federal, state and local government web resources and services.